Time;durP1;ratioP1;P1;durP2;ratioP2;P2;SDS_P1;SDS_P2;PMS_P1;PMS_P2;Temp;Humidity;BMP_temperature;BMP_pressure;BME280_temperature;BME280_humidity;BME280_pressure;Samples;Min_cycle;Max_cycle;Signal;HPM_P1;HPM_P2
2021/04/07 00:01:59;;;;;;;;;;;23.40;99.90;;;;;;5053154;28;19952;-79
2021/04/07 00:04:26;;;;;;;;;;;23.40;99.90;;;;;;5052915;28;19935;-79
2021/04/07 00:06:55;;;;;;;;;;;23.50;99.90;;;;;;5053301;28;19967;-80
2021/04/07 00:09:22;;;;;;;;;;;23.50;99.90;;;;;;5053204;28;19909;-81
2021/04/07 00:11:48;;;;;;;;;;;23.40;99.90;;;;;;5053228;28;19908;-81
2021/04/07 00:14:15;;;;;;;;;;;23.30;99.90;;;;;;5053165;28;19920;-79
2021/04/07 00:16:42;;;;;;;;;;;23.20;99.90;;;;;;5053153;28;19908;-80
2021/04/07 00:19:09;;;;;;;;;;;23.10;99.90;;;;;;5053264;28;20476;-80
2021/04/07 00:21:35;;;;;;;;;;;23.10;99.90;;;;;;5053873;28;19970;-80
2021/04/07 00:24:02;;;;;;;;;;;23.20;99.90;;;;;;5052954;28;19916;-79
2021/04/07 00:26:29;;;;;;;;;;;23.20;99.90;;;;;;5052937;28;19908;-80
2021/04/07 00:28:55;;;;;;;;;;;23.20;99.90;;;;;;5053284;28;20004;-81
2021/04/07 00:31:22;;;;;;;;;;;23.10;99.90;;;;;;5053629;28;19982;-81
2021/04/07 00:33:49;;;;;;;;;;;23.00;99.90;;;;;;5053289;28;19984;-81
2021/04/07 00:36:15;;;;;;;;;;;22.90;99.90;;;;;;5053252;28;20295;-80
2021/04/07 00:38:42;;;;;;;;;;;22.80;99.90;;;;;;5052914;28;19909;-81
2021/04/07 00:41:09;;;;;;;;;;;22.70;99.90;;;;;;5053407;28;20004;-79
2021/04/07 00:43:35;;;;;;;;;;;22.60;99.90;;;;;;5053195;28;19919;-80
2021/04/07 00:46:02;;;;;;;;;;;22.50;99.90;;;;;;5053223;28;19909;-81
2021/04/07 00:48:29;;;;;;;;;;;22.50;99.90;;;;;;5052932;28;19913;-79
2021/04/07 00:50:55;;;;;;;;;;;22.50;99.90;;;;;;5072315;28;19961;-81
2021/04/07 00:53:22;;;;;;;;;;;22.50;99.90;;;;;;5067293;28;20431;-80
2021/04/07 00:55:49;;;;;;;;;;;22.50;99.90;;;;;;5053433;28;19940;-81
2021/04/07 00:58:16;;;;;;;;;;;22.60;99.90;;;;;;5051338;28;20431;-81
2021/04/07 01:00:43;;;;;;;;;;;22.50;99.90;;;;;;5052612;28;19913;-81
2021/04/07 01:03:12;;;;;;;;;;;22.50;99.90;;;;;;5051823;28;19920;-80
2021/04/07 01:05:40;;;;;;;;;;;22.50;99.90;;;;;;5074305;28;19966;-80
2021/04/07 01:08:06;;;;;;;;;;;22.60;99.90;;;;;;5057158;28;20062;-80
2021/04/07 01:10:33;;;;;;;;;;;22.50;99.90;;;;;;5056172;28;19989;-80
2021/04/07 01:13:00;;;;;;;;;;;22.60;99.90;;;;;;5056582;28;20007;-81
2021/04/07 01:15:26;;;;;;;;;;;22.50;99.90;;;;;;5056298;28;19916;-80
2021/04/07 01:17:55;;;;;;;;;;;22.50;99.90;;;;;;5055958;28;20032;-80
2021/04/07 01:20:22;;;;;;;;;;;22.50;99.90;;;;;;5056338;28;19909;-80
2021/04/07 01:22:54;;;;;;;;;;;22.50;99.90;;;;;;5056226;28;19913;-80
2021/04/07 01:25:21;;;;;;;;;;;22.50;99.90;;;;;;5056105;28;19909;-80
2021/04/07 01:27:48;;;;;;;;;;;22.50;99.90;;;;;;5055997;28;19936;-80
2021/04/07 01:30:16;;;;;;;;;;;22.50;99.90;;;;;;5055702;28;19928;-81
2021/04/07 01:32:43;;;;;;;;;;;22.50;99.90;;;;;;5055812;28;20410;-81
2021/04/07 01:35:11;;;;;;;;;;;22.50;99.90;;;;;;5055844;28;19956;-81
2021/04/07 01:37:38;;;;;;;;;;;22.50;99.90;;;;;;5055816;28;19959;-81
2021/04/07 01:40:09;;;;;;;;;;;22.50;99.90;;;;;;5055989;28;19909;-81
2021/04/07 01:42:36;;;;;;;;;;;22.50;99.90;;;;;;5055932;28;20369;-81
2021/04/07 01:45:04;;;;;;;;;;;22.50;99.90;;;;;;5056154;28;20018;-81
2021/04/07 01:47:32;;;;;;;;;;;22.50;99.90;;;;;;5055895;28;19909;-81
2021/04/07 01:50:02;;;;;;;;;;;22.50;99.90;;;;;;5055943;28;19916;-79
2021/04/07 01:52:29;;;;;;;;;;;22.60;99.90;;;;;;5055607;28;20412;-81
2021/04/07 01:54:56;;;;;;;;;;;22.60;99.90;;;;;;5055878;28;19948;-80
2021/04/07 01:57:23;;;;;;;;;;;22.60;99.90;;;;;;5055515;28;19909;-78
2021/04/07 01:59:50;;;;;;;;;;;22.70;99.90;;;;;;5055663;28;19909;-79
2021/04/07 02:02:17;;;;;;;;;;;22.70;99.90;;;;;;5055838;28;19924;-79
2021/04/07 02:04:43;;;;;;;;;;;22.70;99.90;;;;;;5055383;28;19908;-80
2021/04/07 02:07:14;;;;;;;;;;;22.70;99.90;;;;;;5055495;28;20000;-81
2021/04/07 02:09:41;;;;;;;;;;;22.70;99.90;;;;;;5055682;28;19954;-81
2021/04/07 02:12:08;;;;;;;;;;;22.70;99.90;;;;;;5055449;28;19955;-80
2021/04/07 02:14:35;;;;;;;;;;;22.70;99.90;;;;;;5055308;28;19963;-80
2021/04/07 02:17:03;;;;;;;;;;;22.70;99.90;;;;;;5056206;28;19909;-80
2021/04/07 02:19:30;;;;;;;;;;;22.70;99.90;;;;;;5054556;28;20260;-81
2021/04/07 02:21:58;;;;;;;;;;;22.70;99.90;;;;;;5055174;28;19917;-81
2021/04/07 02:24:24;;;;;;;;;;;22.70;99.90;;;;;;5055078;28;20365;-80
2021/04/07 02:26:51;;;;;;;;;;;22.80;99.90;;;;;;5054842;28;20371;-81
2021/04/07 02:29:18;;;;;;;;;;;22.90;99.90;;;;;;5055001;28;19913;-80
2021/04/07 02:31:44;;;;;;;;;;;22.90;99.90;;;;;;5055006;28;19916;-80
2021/04/07 02:34:12;;;;;;;;;;;23.10;99.90;;;;;;5054907;28;19916;-80
2021/04/07 02:36:39;;;;;;;;;;;23.10;99.90;;;;;;5054667;28;19908;-80
2021/04/07 02:39:05;;;;;;;;;;;23.20;99.90;;;;;;5054811;28;19968;-80
2021/04/07 02:41:32;;;;;;;;;;;23.40;99.90;;;;;;5054586;28;20397;-80
2021/04/07 02:43:59;;;;;;;;;;;23.50;99.90;;;;;;5053486;28;19999;-80
2021/04/07 02:46:27;;;;;;;;;;;23.60;99.90;;;;;;5053512;28;19921;-80
2021/04/07 02:48:53;;;;;;;;;;;23.60;99.90;;;;;;5053236;28;19916;-80
2021/04/07 02:51:20;;;;;;;;;;;23.50;99.90;;;;;;5053316;28;19919;-82
2021/04/07 02:53:47;;;;;;;;;;;23.50;99.90;;;;;;5054400;28;19956;-80
2021/04/07 02:56:13;;;;;;;;;;;23.50;99.90;;;;;;5054735;28;19908;-81
2021/04/07 02:58:43;;;;;;;;;;;23.60;99.90;;;;;;5039736;28;19921;-82
2021/04/07 03:01:09;;;;;;;;;;;23.70;99.90;;;;;;5060767;28;19984;-78
2021/04/07 03:03:36;;;;;;;;;;;23.70;99.90;;;;;;5059586;28;19927;-81
2021/04/07 03:06:03;;;;;;;;;;;23.80;99.90;;;;;;5075110;28;19917;-80
2021/04/07 03:08:29;;;;;;;;;;;23.80;99.90;;;;;;5070930;28;19936;-81
2021/04/07 03:10:56;;;;;;;;;;;23.70;99.90;;;;;;5053701;28;19994;-80
2021/04/07 03:13:23;;;;;;;;;;;23.70;99.90;;;;;;5053161;28;20287;-80
2021/04/07 03:15:49;;;;;;;;;;;23.80;99.90;;;;;;5052240;28;20398;-81
2021/04/07 03:18:16;;;;;;;;;;;23.80;99.90;;;;;;5042445;28;19916;-81
2021/04/07 03:20:43;;;;;;;;;;;23.80;99.90;;;;;;5050007;28;19917;-81
2021/04/07 03:23:09;;;;;;;;;;;23.70;99.90;;;;;;5052078;28;20015;-81
2021/04/07 03:25:36;;;;;;;;;;;23.70;99.90;;;;;;5048771;28;20391;-82
2021/04/07 03:28:03;;;;;;;;;;;23.80;99.90;;;;;;5050462;28;19934;-82
2021/04/07 03:30:48;;;;;;;;;;;23.80;99.90;;;;;;5050515;28;20383;-82
2021/04/07 03:33:18;;;;;;;;;;;23.80;99.90;;;;;;5051815;28;19959;-81
2021/04/07 03:35:45;;;;;;;;;;;23.70;99.90;;;;;;5050921;28;19920;-81
2021/04/07 03:38:12;;;;;;;;;;;23.70;99.90;;;;;;5051109;28;20040;-81
2021/04/07 03:40:39;;;;;;;;;;;23.90;99.90;;;;;;5050356;28;19917;-82
2021/04/07 03:43:06;;;;;;;;;;;23.90;99.90;;;;;;5049789;28;20009;-82
2021/04/07 03:45:33;;;;;;;;;;;23.90;99.90;;;;;;5050679;28;19920;-79
2021/04/07 03:48:00;;;;;;;;;;;23.80;99.90;;;;;;5050233;28;20613;-80
2021/04/07 03:50:27;;;;;;;;;;;23.70;99.90;;;;;;5049315;28;20002;-80
2021/04/07 03:52:54;;;;;;;;;;;23.60;99.90;;;;;;5051172;28;19909;-82
2021/04/07 03:55:21;;;;;;;;;;;23.50;99.90;;;;;;5049952;28;19920;-79
2021/04/07 03:57:47;;;;;;;;;;;23.40;99.90;;;;;;5049872;28;19935;-82
2021/04/07 04:00:14;;;;;;;;;;;23.40;99.90;;;;;;5050345;28;20049;-82
2021/04/07 04:02:41;;;;;;;;;;;23.30;99.90;;;;;;5049031;28;20276;-81
2021/04/07 04:05:08;;;;;;;;;;;23.30;99.90;;;;;;5051443;28;20007;-82
2021/04/07 04:07:35;;;;;;;;;;;23.30;99.90;;;;;;5049093;28;19960;-82
2021/04/07 04:10:02;;;;;;;;;;;23.30;99.90;;;;;;5050016;28;19963;-81
2021/04/07 04:12:28;;;;;;;;;;;23.30;99.90;;;;;;5049187;28;19916;-81
2021/04/07 04:14:55;;;;;;;;;;;23.30;99.90;;;;;;5050444;28;19916;-82
2021/04/07 04:17:22;;;;;;;;;;;23.30;99.90;;;;;;5050123;28;20427;-82
2021/04/07 04:19:49;;;;;;;;;;;23.20;99.90;;;;;;5050698;28;19909;-81
2021/04/07 04:22:16;;;;;;;;;;;23.20;99.90;;;;;;5049326;28;20373;-81
2021/04/07 04:24:43;;;;;;;;;;;23.30;99.90;;;;;;5050191;28;19932;-81
2021/04/07 04:27:10;;;;;;;;;;;23.20;99.90;;;;;;5049060;28;19913;-82
2021/04/07 04:29:37;;;;;;;;;;;23.20;99.90;;;;;;5047599;28;20245;-79
2021/04/07 04:32:07;;;;;;;;;;;23.20;99.90;;;;;;5053342;28;20257;-79
2021/04/07 04:34:34;;;;;;;;;;;23.20;99.90;;;;;;5050862;28;19912;-79
2021/04/07 04:37:00;;;;;;;;;;;23.30;99.90;;;;;;5049841;28;19989;-80
2021/04/07 04:39:27;;;;;;;;;;;23.20;99.90;;;;;;5050103;28;19948;-80
2021/04/07 04:41:54;;;;;;;;;;;23.20;99.90;;;;;;5050610;28;19920;-81
2021/04/07 04:44:20;;;;;;;;;;;23.20;99.90;;;;;;5052722;28;19963;-81
2021/04/07 04:46:47;;;;;;;;;;;23.20;99.90;;;;;;5054331;28;19942;-80
2021/04/07 04:49:14;;;;;;;;;;;23.20;99.90;;;;;;5052920;28;20012;-80
2021/04/07 04:51:40;;;;;;;;;;;23.20;99.90;;;;;;5053544;28;20740;-80
2021/04/07 04:54:07;;;;;;;;;;;23.20;99.90;;;;;;5053569;28;19948;-80
2021/04/07 04:56:34;;;;;;;;;;;23.20;99.90;;;;;;5051097;28;20351;-80
2021/04/07 04:59:01;;;;;;;;;;;23.10;99.90;;;;;;5050933;28;19943;-80
2021/04/07 05:01:28;;;;;;;;;;;23.10;99.90;;;;;;5052460;28;19924;-80
2021/04/07 05:03:54;;;;;;;;;;;23.10;99.90;;;;;;5052749;28;19913;-78
2021/04/07 05:06:21;;;;;;;;;;;23.10;99.90;;;;;;5067603;28;19952;-78
2021/04/07 05:08:48;;;;;;;;;;;23.10;99.90;;;;;;5065237;28;19935;-80
2021/04/07 05:11:15;;;;;;;;;;;23.10;99.90;;;;;;5053127;28;20072;-79
2021/04/07 05:13:42;;;;;;;;;;;23.10;99.90;;;;;;5053941;28;19967;-81
2021/04/07 05:16:08;;;;;;;;;;;23.10;99.90;;;;;;5060038;28;19901;-80
2021/04/07 05:18:35;;;;;;;;;;;23.10;99.90;;;;;;5078521;28;19917;-79
2021/04/07 05:21:02;;;;;;;;;;;23.10;99.90;;;;;;5057128;28;20225;-79
2021/04/07 05:23:28;;;;;;;;;;;23.10;99.90;;;;;;5053054;28;19966;-80
2021/04/07 05:25:55;;;;;;;;;;;23.10;99.90;;;;;;5052255;28;20080;-80
2021/04/07 05:28:21;;;;;;;;;;;23.10;99.90;;;;;;5051776;28;19920;-80
2021/04/07 05:31:01;;;;;;;;;;;23.10;99.90;;;;;;5044245;28;19936;-78
2021/04/07 05:33:29;;;;;;;;;;;23.20;99.90;;;;;;5051976;28;19983;-80
2021/04/07 05:35:56;;;;;;;;;;;23.10;99.90;;;;;;5047594;28;19916;-78
2021/04/07 05:38:23;;;;;;;;;;;23.20;99.90;;;;;;5051450;28;19919;-80
2021/04/07 05:40:51;;;;;;;;;;;23.10;99.90;;;;;;5051092;28;19987;-80
2021/04/07 05:43:18;;;;;;;;;;;23.10;99.90;;;;;;5052791;28;19913;-80
2021/04/07 05:45:45;;;;;;;;;;;23.10;99.90;;;;;;5052283;28;19921;-78
2021/04/07 05:48:11;;;;;;;;;;;23.10;99.90;;;;;;5049492;28;20375;-79
2021/04/07 05:50:42;;;;;;;;;;;23.10;99.90;;;;;;5050908;28;20330;-78
2021/04/07 05:53:09;;;;;;;;;;;23.10;99.90;;;;;;5051657;28;19917;-80
2021/04/07 05:55:36;;;;;;;;;;;23.00;99.90;;;;;;5051351;28;19917;-80
2021/04/07 05:58:04;;;;;;;;;;;23.10;99.90;;;;;;5052233;28;19915;-79
2021/04/07 06:00:31;;;;;;;;;;;23.10;99.90;;;;;;5052501;28;19909;-79
2021/04/07 06:02:59;;;;;;;;;;;23.10;99.90;;;;;;5052875;28;19912;-79
2021/04/07 06:05:29;;;;;;;;;;;23.00;99.90;;;;;;5051591;28;19908;-80
2021/04/07 06:07:56;;;;;;;;;;;23.00;99.90;;;;;;5052257;28;19999;-81
2021/04/07 06:10:24;;;;;;;;;;;23.00;99.90;;;;;;5053518;28;20364;-81
2021/04/07 06:12:51;;;;;;;;;;;23.00;99.90;;;;;;5051959;28;20019;-81
2021/04/07 06:15:18;;;;;;;;;;;23.00;99.90;;;;;;5052499;28;19952;-81
2021/04/07 06:17:55;;;;;;;;;;;22.90;99.90;;;;;;5065924;28;19955;-81
2021/04/07 06:20:26;;;;;;;;;;;22.40;99.90;;;;;;5066618;28;19909;-80
2021/04/07 06:22:54;;;;;;;;;;;21.90;99.90;;;;;;5053231;28;19912;-88
2021/04/07 06:25:21;;;;;;;;;;;21.60;99.90;;;;;;5051987;28;19909;-83
2021/04/07 06:27:54;;;;;;;;;;;21.30;99.90;;;;;;5052875;28;19951;-84
2021/04/07 06:30:40;;;;;;;;;;;21.00;99.90;;;;;;5051953;28;19944;-81
2021/04/07 06:33:26;;;;;;;;;;;20.70;99.90;;;;;;5052356;28;19913;-84
2021/04/07 06:35:58;;;;;;;;;;;20.60;99.90;;;;;;5047502;28;20376;-88
2021/04/07 06:38:25;;;;;;;;;;;20.60;99.90;;;;;;5044419;28;20020;-83
2021/04/07 06:40:53;;;;;;;;;;;20.60;99.90;;;;;;5051264;28;19922;-81
2021/04/07 06:43:21;;;;;;;;;;;20.60;99.90;;;;;;5052670;28;19954;-82
2021/04/07 06:45:48;;;;;;;;;;;20.60;99.90;;;;;;5051960;28;19974;-85
2021/04/07 06:48:15;;;;;;;;;;;20.70;99.90;;;;;;5052202;28;20341;-83
2021/04/07 06:50:43;;;;;;;;;;;20.80;99.90;;;;;;5052420;28;19960;-84
2021/04/07 06:53:10;;;;;;;;;;;20.80;99.90;;;;;;5052324;28;19913;-86
2021/04/07 06:55:38;;;;;;;;;;;20.90;99.90;;;;;;5051968;28;19979;-82
2021/04/07 06:58:05;;;;;;;;;;;21.00;99.90;;;;;;5053838;28;19908;-84
2021/04/07 07:00:32;;;;;;;;;;;21.00;99.90;;;;;;5053035;28;19952;-84
2021/04/07 07:03:03;;;;;;;;;;;20.90;99.90;;;;;;5053986;28;19917;-86
2021/04/07 07:05:31;;;;;;;;;;;20.90;99.90;;;;;;5053446;28;20379;-87
2021/04/07 07:08:16;;;;;;;;;;;21.00;99.90;;;;;;5054199;28;19909;-86
2021/04/07 07:10:43;;;;;;;;;;;21.00;99.90;;;;;;5047175;28;19919;-86
2021/04/07 07:13:11;;;;;;;;;;;21.00;99.90;;;;;;5052402;28;19913;-84
2021/04/07 07:15:38;;;;;;;;;;;20.90;99.90;;;;;;5053442;28;19936;-83
2021/04/07 07:18:11;;;;;;;;;;;20.80;99.90;;;;;;5053897;28;19920;-83
2021/04/07 07:20:41;;;;;;;;;;;20.70;99.90;;;;;;5054896;28;19916;-80
2021/04/07 07:23:08;;;;;;;;;;;20.80;99.90;;;;;;5053360;28;20006;-80
2021/04/07 07:25:34;;;;;;;;;;;20.80;99.90;;;;;;5052560;28;19916;-82
2021/04/07 07:28:03;;;;;;;;;;;20.80;99.90;;;;;;5048213;28;20293;-82
2021/04/07 07:30:43;;;;;;;;;;;20.80;99.90;;;;;;5049193;28;20413;-82
2021/04/07 07:33:14;;;;;;;;;;;20.80;99.90;;;;;;5051167;28;19913;-79
2021/04/07 07:35:40;;;;;;;;;;;20.80;99.90;;;;;;5051180;28;20344;-83
2021/04/07 07:38:10;;;;;;;;;;;20.80;99.90;;;;;;5047366;28;19932;-84
2021/04/07 07:40:37;;;;;;;;;;;20.80;99.90;;;;;;5050713;28;19999;-84
2021/04/07 07:43:04;;;;;;;;;;;20.80;99.90;;;;;;5050260;28;19928;-84
2021/04/07 07:45:39;;;;;;;;;;;20.80;99.90;;;;;;5050418;28;19912;-85
2021/04/07 07:48:09;;;;;;;;;;;20.90;99.90;;;;;;5051205;28;19963;-81
2021/04/07 07:50:37;;;;;;;;;;;20.80;99.90;;;;;;5048381;28;20387;-85
2021/04/07 07:53:11;;;;;;;;;;;20.80;99.90;;;;;;5049920;28;20003;-84
2021/04/07 07:55:38;;;;;;;;;;;20.70;99.90;;;;;;5041288;28;19921;-84
2021/04/07 07:58:05;;;;;;;;;;;20.70;99.90;;;;;;5051269;28;19913;-83
2021/04/07 08:00:32;;;;;;;;;;;20.70;99.90;;;;;;5050218;28;19917;-87
2021/04/07 08:03:09;;;;;;;;;;;20.80;99.90;;;;;;5051147;28;19921;-85
2021/04/07 08:05:36;;;;;;;;;;;20.80;99.90;;;;;;5050865;28;19916;-85
2021/04/07 08:08:04;;;;;;;;;;;20.80;99.90;;;;;;5050516;28;19913;-82
2021/04/07 08:10:32;;;;;;;;;;;20.80;99.90;;;;;;5050137;28;19920;-86
2021/04/07 08:13:00;;;;;;;;;;;20.80;99.90;;;;;;5050834;28;20368;-83
2021/04/07 08:15:28;;;;;;;;;;;20.80;99.90;;;;;;5050699;28;19967;-83
2021/04/07 08:17:55;;;;;;;;;;;20.70;99.90;;;;;;5052882;28;20216;-82
2021/04/07 08:20:22;;;;;;;;;;;20.80;99.90;;;;;;5055481;28;19912;-85
2021/04/07 08:22:49;;;;;;;;;;;20.70;99.90;;;;;;5054090;28;19925;-82
2021/04/07 08:25:16;;;;;;;;;;;20.70;99.90;;;;;;5054689;28;19917;-87
2021/04/07 08:27:42;;;;;;;;;;;20.70;99.90;;;;;;5054850;28;19962;-81
2021/04/07 08:30:10;;;;;;;;;;;20.70;99.90;;;;;;5053796;28;19967;-80
2021/04/07 08:32:37;;;;;;;;;;;20.80;99.90;;;;;;5054287;28;20290;-83
2021/04/07 08:35:06;;;;;;;;;;;20.70;99.90;;;;;;5054194;28;20011;-80
2021/04/07 08:37:33;;;;;;;;;;;20.70;99.90;;;;;;5054151;28;19920;-83
2021/04/07 08:40:13;;;;;;;;;;;20.80;99.90;;;;;;5053142;28;19913;-86
2021/04/07 08:42:40;;;;;;;;;;;20.90;99.90;;;;;;5052561;28;20032;-82
2021/04/07 08:45:11;;;;;;;;;;;20.90;99.90;;;;;;5052337;28;19917;-87
2021/04/07 08:47:47;;;;;;;;;;;21.00;99.90;;;;;;5052856;28;19912;-81
2021/04/07 08:50:14;;;;;;;;;;;21.00;99.90;;;;;;5052636;28;20015;-82
2021/04/07 08:52:48;;;;;;;;;;;21.00;99.90;;;;;;5052996;28;19909;-80
2021/04/07 08:55:16;;;;;;;;;;;21.00;99.90;;;;;;5054650;28;20456;-86
2021/04/07 08:57:43;;;;;;;;;;;21.00;99.90;;;;;;5053776;28;19931;-87
2021/04/07 09:00:11;;;;;;;;;;;21.00;99.90;;;;;;5053829;28;19909;-80
2021/04/07 09:02:47;;;;;;;;;;;21.00;99.90;;;;;;5053784;28;19956;-83
2021/04/07 09:05:14;;;;;;;;;;;21.00;99.90;;;;;;5054232;28;19909;-83
2021/04/07 09:07:42;;;;;;;;;;;21.00;99.90;;;;;;5053676;28;20279;-80
2021/04/07 09:10:18;;;;;;;;;;;20.90;99.90;;;;;;5049081;28;19921;-80
2021/04/07 09:12:46;;;;;;;;;;;20.60;99.90;;;;;;5054212;28;19912;-87
2021/04/07 09:15:16;;;;;;;;;;;20.50;99.90;;;;;;5054184;28;19909;-84
2021/04/07 09:17:43;;;;;;;;;;;20.40;99.90;;;;;;5053559;28;19916;-90
2021/04/07 09:20:11;;;;;;;;;;;20.40;99.90;;;;;;5054189;28;19916;-85
2021/04/07 09:22:47;;;;;;;;;;;20.30;99.90;;;;;;5054083;28;19952;-83
2021/04/07 09:25:18;;;;;;;;;;;20.30;99.90;;;;;;5054238;28;19915;-84
2021/04/07 09:27:45;;;;;;;;;;;20.10;99.90;;;;;;5054166;28;19977;-84
2021/04/07 09:30:12;;;;;;;;;;;20.10;99.90;;;;;;5053816;28;20406;-82
2021/04/07 09:32:40;;;;;;;;;;;20.00;99.90;;;;;;5054759;28;20063;-89
2021/04/07 09:35:10;;;;;;;;;;;20.00;99.90;;;;;;5054179;28;20302;-90
2021/04/07 09:37:39;;;;;;;;;;;19.80;99.90;;;;;;5054605;28;20386;-85
2021/04/07 09:40:16;;;;;;;;;;;19.70;99.90;;;;;;5045069;28;20386;-87
2021/04/07 09:42:43;;;;;;;;;;;19.70;99.90;;;;;;5051474;28;19917;-81
2021/04/07 09:45:10;;;;;;;;;;;19.70;99.90;;;;;;5034714;28;19913;-87
2021/04/07 09:47:36;;;;;;;;;;;19.60;99.90;;;;;;5038889;28;19923;-81
2021/04/07 09:50:10;;;;;;;;;;;19.50;99.90;;;;;;5051028;28;19909;-84
2021/04/07 09:52:49;;;;;;;;;;;19.40;99.90;;;;;;5054144;28;19919;-88
2021/04/07 09:55:23;;;;;;;;;;;19.40;99.90;;;;;;5053362;28;19971;-82
2021/04/07 09:58:15;;;;;;;;;;;19.60;99.90;;;;;;5053396;28;19954;-85
2021/04/07 10:00:42;;;;;;;;;;;19.80;99.90;;;;;;5054348;28;19917;-89
2021/04/07 10:03:18;;;;;;;;;;;19.70;99.90;;;;;;5054630;28;19921;-91
2021/04/07 10:05:44;;;;;;;;;;;19.70;99.90;;;;;;5054909;28;20478;-91
2021/04/07 10:08:12;;;;;;;;;;;19.70;99.90;;;;;;5046649;28;19909;-87
2021/04/07 10:10:39;;;;;;;;;;;19.70;99.90;;;;;;5035424;28;19909;-90
2021/04/07 10:13:06;;;;;;;;;;;19.60;99.90;;;;;;5034870;28;19913;-84
2021/04/07 10:15:33;;;;;;;;;;;19.50;99.90;;;;;;5034140;28;19909;-87
2021/04/07 10:18:06;;;;;;;;;;;19.50;99.90;;;;;;5037235;28;20346;-87
2021/04/07 10:20:33;;;;;;;;;;;19.50;99.90;;;;;;5053739;28;19920;-88
2021/04/07 10:22:59;;;;;;;;;;;19.50;99.90;;;;;;5053817;28;19959;-81
2021/04/07 10:25:29;;;;;;;;;;;19.50;99.90;;;;;;5053526;28;19913;-85
2021/04/07 10:27:55;;;;;;;;;;;19.70;99.90;;;;;;5054273;28;20007;-85
2021/04/07 10:30:23;;;;;;;;;;;19.80;99.90;;;;;;5054084;28;19921;-87
2021/04/07 10:32:51;;;;;;;;;;;19.90;99.90;;;;;;5054100;28;19916;-82
2021/04/07 10:35:19;;;;;;;;;;;20.00;99.90;;;;;;5054100;28;19912;-88
2021/04/07 10:37:53;;;;;;;;;;;20.10;99.90;;;;;;5053994;28;20469;-86
2021/04/07 10:40:21;;;;;;;;;;;20.10;99.90;;;;;;5052754;28;19985;-84
2021/04/07 10:42:48;;;;;;;;;;;20.10;99.90;;;;;;5052814;28;19924;-85
2021/04/07 10:45:17;;;;;;;;;;;20.10;99.90;;;;;;5053597;28;19909;-92
2021/04/07 10:47:44;;;;;;;;;;;20.10;99.90;;;;;;5052936;28;19917;-84
2021/04/07 10:50:11;;;;;;;;;;;20.20;99.90;;;;;;5053794;28;19920;-85
2021/04/07 10:52:39;;;;;;;;;;;20.20;99.90;;;;;;5052293;28;20295;-81
2021/04/07 10:55:08;;;;;;;;;;;20.30;99.90;;;;;;5052995;28;19913;-83
2021/04/07 10:57:47;;;;;;;;;;;20.30;99.90;;;;;;5054413;28;20334;-89
2021/04/07 11:00:32;;;;;;;;;;;20.20;99.90;;;;;;5053216;28;19909;-91
2021/04/07 11:02:59;;;;;;;;;;;20.10;99.90;;;;;;5053553;28;20016;-85
2021/04/07 11:05:27;;;;;;;;;;;20.20;99.90;;;;;;5053683;28;19928;-85
2021/04/07 11:08:20;;;;;;;;;;;20.20;99.90;;;;;;5033630;28;19949;-89
2021/04/07 11:10:50;;;;;;;;;;;20.10;99.90;;;;;;5033378;28;19909;-88
2021/04/07 11:13:18;;;;;;;;;;;20.10;99.90;;;;;;5032655;28;19909;-85
2021/04/07 11:15:45;;;;;;;;;;;20.10;99.90;;;;;;5051978;28;19928;-92
2021/04/07 11:18:11;;;;;;;;;;;20.10;99.90;;;;;;5053148;28;20376;-88
2021/04/07 11:20:39;;;;;;;;;;;20.10;99.90;;;;;;5053396;28;19920;-89
2021/04/07 11:23:06;;;;;;;;;;;20.10;99.90;;;;;;5053482;28;19916;-87
2021/04/07 11:25:33;;;;;;;;;;;20.10;99.90;;;;;;5053127;28;19909;-86
2021/04/07 11:28:00;;;;;;;;;;;20.10;99.90;;;;;;5053328;28;20011;-86
2021/04/07 11:30:30;;;;;;;;;;;20.10;99.90;;;;;;5051682;28;19927;-79
2021/04/07 11:33:02;;;;;;;;;;;20.10;99.90;;;;;;5052198;28;19919;-89
2021/04/07 11:35:41;;;;;;;;;;;20.00;99.90;;;;;;5049741;28;19912;-83
2021/04/07 11:38:09;;;;;;;;;;;20.00;99.90;;;;;;5051000;28;19924;-83
2021/04/07 11:41:47;;;;;;;;;;;20.00;99.90;;;;;;5051135;28;19936;-81
2021/04/07 11:43:35;;;;;;;;;;;20.00;99.90;;;;;;5052124;28;19962;-83
2021/04/07 11:46:02;;;;;;;;;;;20.00;99.90;;;;;;5051819;28;19920;-88
2021/04/07 11:48:29;;;;;;;;;;;20.00;99.90;;;;;;5050571;28;19909;-87
2021/04/07 11:50:55;;;;;;;;;;;20.00;99.90;;;;;;5052422;28;19913;-85
2021/04/07 11:53:22;;;;;;;;;;;19.90;99.90;;;;;;5052929;28;19931;-89
2021/04/07 11:55:49;;;;;;;;;;;19.90;99.90;;;;;;5052939;28;19970;-83
2021/04/07 11:58:16;;;;;;;;;;;19.80;99.90;;;;;;5053130;28;19959;-84
2021/04/07 12:00:42;;;;;;;;;;;19.80;99.90;;;;;;5053062;28;20048;-85
2021/04/07 12:03:09;;;;;;;;;;;19.70;99.90;;;;;;5052962;28;19912;-82
2021/04/07 12:05:36;;;;;;;;;;;19.70;99.90;;;;;;5052975;28;19924;-80
2021/04/07 12:08:03;;;;;;;;;;;19.70;99.90;;;;;;5053271;28;20299;-79
2021/04/07 12:10:30;;;;;;;;;;;19.60;99.90;;;;;;5052833;28;19909;-85
2021/04/07 12:12:57;;;;;;;;;;;19.60;99.90;;;;;;5052768;28;20075;-79
2021/04/07 12:15:26;;;;;;;;;;;19.60;99.90;;;;;;5050229;28;19920;-84
2021/04/07 12:17:53;;;;;;;;;;;19.60;99.90;;;;;;5051984;28;19916;-82
2021/04/07 12:20:20;;;;;;;;;;;19.60;99.90;;;;;;5052672;28;19912;-87
2021/04/07 12:22:49;;;;;;;;;;;19.70;99.90;;;;;;5052594;28;20470;-90
2021/04/07 12:25:16;;;;;;;;;;;19.60;99.90;;;;;;5052936;28;19938;-82
2021/04/07 12:27:42;;;;;;;;;;;19.60;99.90;;;;;;5052962;28;19912;-89
2021/04/07 12:30:09;;;;;;;;;;;19.70;99.90;;;;;;5052937;28;19928;-86
2021/04/07 12:32:36;;;;;;;;;;;19.70;99.90;;;;;;5052388;28;19970;-81
2021/04/07 12:35:08;;;;;;;;;;;19.80;99.90;;;;;;5053177;28;19909;-88
2021/04/07 12:37:36;;;;;;;;;;;19.70;99.90;;;;;;5053285;28;20280;-88
2021/04/07 12:40:03;;;;;;;;;;;19.70;99.90;;;;;;5052763;28;19916;-80
2021/04/07 12:42:30;;;;;;;;;;;19.80;99.90;;;;;;5051976;28;20016;-85
2021/04/07 12:44:57;;;;;;;;;;;19.80;99.90;;;;;;5052411;28;19932;-87
2021/04/07 12:47:24;;;;;;;;;;;19.80;99.90;;;;;;5052588;28;19935;-86
2021/04/07 12:49:50;;;;;;;;;;;19.80;99.90;;;;;;5052310;28;20419;-91
2021/04/07 12:52:17;;;;;;;;;;;19.90;99.90;;;;;;5053519;28;20379;-84
2021/04/07 12:54:44;;;;;;;;;;;19.80;99.90;;;;;;5052573;28;19913;-87
2021/04/07 12:57:10;;;;;;;;;;;19.70;99.90;;;;;;5052673;28;20298;-87
2021/04/07 12:59:37;;;;;;;;;;;19.60;99.90;;;;;;5052234;28;20000;-81
2021/04/07 13:02:04;;;;;;;;;;;19.60;99.90;;;;;;5052602;28;19921;-85
2021/04/07 13:04:30;;;;;;;;;;;19.50;99.90;;;;;;5055472;28;20306;-80
2021/04/07 13:06:57;;;;;;;;;;;19.50;99.90;;;;;;5056598;28;20295;-81
2021/04/07 13:09:24;;;;;;;;;;;19.50;99.90;;;;;;5056530;28;19909;-79
2021/04/07 13:11:50;;;;;;;;;;;19.40;99.90;;;;;;5056459;28;19955;-82
2021/04/07 13:14:17;;;;;;;;;;;19.40;99.90;;;;;;5056041;28;19909;-80
2021/04/07 13:16:44;;;;;;;;;;;19.40;99.90;;;;;;5056160;28;19909;-79
2021/04/07 13:19:11;;;;;;;;;;;19.40;99.90;;;;;;5055798;28;19913;-82
2021/04/07 13:21:38;;;;;;;;;;;19.40;99.90;;;;;;5055672;28;20351;-80
2021/04/07 13:24:05;;;;;;;;;;;19.40;99.90;;;;;;5055925;28;19908;-79
2021/04/07 13:26:31;;;;;;;;;;;19.40;99.90;;;;;;5055567;28;19909;-77
2021/04/07 13:28:59;;;;;;;;;;;19.30;99.90;;;;;;5055344;28;19915;-78
2021/04/07 13:31:26;;;;;;;;;;;19.30;99.90;;;;;;5055993;28;19921;-79
2021/04/07 13:33:59;;;;;;;;;;;19.30;99.90;;;;;;5055745;28;19934;-87
2021/04/07 13:38:59;;;;;;;;;;;19.30;99.90;;;;;;5055145;28;19913;-79
2021/04/07 13:43:55;;;;;;;;;;;19.20;99.90;;;;;;5055390;28;19909;-79
2021/04/07 13:46:21;;;;;;;;;;;19.30;99.90;;;;;;5055474;28;19908;-81
2021/04/07 13:48:48;;;;;;;;;;;19.30;99.90;;;;;;5054991;28;19985;-82
2021/04/07 13:51:17;;;;;;;;;;;19.30;99.90;;;;;;5055275;28;19915;-83
2021/04/07 13:53:46;;;;;;;;;;;19.40;99.90;;;;;;5055229;28;19908;-80
2021/04/07 13:56:18;;;;;;;;;;;19.30;99.90;;;;;;5055114;28;20284;-79
2021/04/07 13:58:45;;;;;;;;;;;19.30;99.90;;;;;;5054849;28;19909;-79
2021/04/07 14:01:15;;;;;;;;;;;19.30;99.90;;;;;;5055264;28;20374;-82
2021/04/07 14:03:42;;;;;;;;;;;19.30;99.90;;;;;;5055264;28;19908;-80
2021/04/07 14:06:08;;;;;;;;;;;19.30;99.90;;;;;;5055069;28;19909;-80
2021/04/07 14:08:36;;;;;;;;;;;19.30;99.90;;;;;;5054855;28;20387;-79
2021/04/07 14:11:03;;;;;;;;;;;19.20;99.90;;;;;;5054995;28;19909;-82
2021/04/07 14:13:30;;;;;;;;;;;19.30;99.90;;;;;;5054854;28;19908;-81
2021/04/07 14:15:57;;;;;;;;;;;19.30;99.90;;;;;;5053916;28;19916;-82
2021/04/07 14:18:24;;;;;;;;;;;19.30;99.90;;;;;;5054557;28;19909;-79
2021/04/07 14:20:52;;;;;;;;;;;19.30;99.90;;;;;;5053569;28;19909;-82
2021/04/07 14:23:19;;;;;;;;;;;19.30;99.90;;;;;;5054760;28;19983;-82
2021/04/07 14:25:46;;;;;;;;;;;19.30;99.90;;;;;;5054311;28;19912;-80
2021/04/07 14:28:13;;;;;;;;;;;19.30;99.90;;;;;;5054419;28;19954;-78